createdAt,value
2023-09-09T00:01:01.563Z,101027.88
2023-09-09T00:03:28.586Z,101025.03
2023-09-09T00:05:55.595Z,101020.47
2023-09-09T00:08:23.288Z,101014.84
2023-09-09T00:10:50.259Z,101021.31
2023-09-09T00:13:17.506Z,101017.06
2023-09-09T00:15:44.546Z,101023.97
2023-09-09T00:18:11.449Z,101016.75
2023-09-09T00:20:40.620Z,101024.38
2023-09-09T00:23:11.147Z,101010.81
2023-09-09T00:25:42.836Z,101022.94
2023-09-09T00:28:11.869Z,101017.00
2023-09-09T00:30:40.455Z,101012.88
2023-09-09T00:33:10.643Z,101012.03
2023-09-09T00:35:40.406Z,101016.38
2023-09-09T00:38:09.136Z,101006.38
2023-09-09T00:40:36.906Z,101015.53
2023-09-09T00:43:04.324Z,101008.91
2023-09-09T00:45:31.701Z,101017.16
2023-09-09T00:47:59.897Z,101009.06
2023-09-09T00:50:27.091Z,101007.06
2023-09-09T00:52:54.205Z,101013.84
2023-09-09T00:55:21.605Z,101006.13
2023-09-09T00:57:48.577Z,101017.94
2023-09-09T01:00:15.792Z,101013.53
2023-09-09T01:02:43.532Z,101008.75
2023-09-09T01:05:13.666Z,101003.44
2023-09-09T01:07:45.866Z,101004.19
2023-09-09T01:10:13.964Z,100998.88
2023-09-09T01:12:42.748Z,101012.66
2023-09-09T01:15:12.917Z,101022.84
2023-09-09T01:17:43.108Z,101009.84
2023-09-09T01:20:21.221Z,101011.97
2023-09-09T01:22:51.659Z,101006.97
2023-09-09T01:25:18.995Z,101010.84
2023-09-09T01:27:46.396Z,101003.34
2023-09-09T01:30:13.722Z,101007.34
2023-09-09T01:32:41.050Z,100997.94
2023-09-09T01:35:11.530Z,100994.16
2023-09-09T01:37:38.497Z,100996.63
2023-09-09T01:40:10.391Z,101001.16
2023-09-09T01:42:38.745Z,100997.63
2023-09-09T01:45:07.893Z,100994.84
2023-09-09T01:47:35.196Z,100986.06
2023-09-09T01:50:03.350Z,100991.16
2023-09-09T01:52:31.508Z,100993.75
2023-09-09T01:54:58.473Z,100990.97
2023-09-09T01:57:28.243Z,100997.34
2023-09-09T01:59:56.255Z,100990.09
2023-09-09T02:02:23.702Z,100995.81
2023-09-09T02:04:50.906Z,100989.84
2023-09-09T02:07:18.024Z,100989.53
2023-09-09T02:09:46.110Z,100985.56
2023-09-09T02:12:12.995Z,100994.34
2023-09-09T02:14:39.995Z,100986.31
2023-09-09T02:17:07.078Z,100991.25
2023-09-09T02:19:34.840Z,100978.91
2023-09-09T02:22:04.313Z,100982.47
2023-09-09T02:24:31.512Z,100978.22
2023-09-09T02:26:58.778Z,100977.06
2023-09-09T02:29:25.822Z,100986.75
2023-09-09T02:31:52.828Z,100975.44
2023-09-09T02:34:19.732Z,100979.28
2023-09-09T02:37:36.732Z,100976.59
2023-09-09T02:40:05.261Z,100975.91
2023-09-09T02:42:32.197Z,100985.56
2023-09-09T02:44:59.405Z,100977.59
2023-09-09T02:47:27.232Z,100972.34
2023-09-09T02:49:55.122Z,100970.66
2023-09-09T02:52:22.540Z,100967.28
2023-09-09T02:54:49.683Z,100971.66
2023-09-09T02:57:17.905Z,100969.25
2023-09-09T02:59:44.896Z,100965.41
2023-09-09T03:02:14.153Z,100963.59
2023-09-09T03:04:41.953Z,100967.28
2023-09-09T03:07:08.974Z,100964.56
2023-09-09T03:09:37.536Z,100968.72
2023-09-09T03:12:06.996Z,100970.38
2023-09-09T03:14:34.373Z,100962.19
2023-09-09T03:17:01.521Z,100961.78
2023-09-09T03:19:30.304Z,100976.50
2023-09-09T03:21:58.922Z,100967.56
2023-09-09T03:24:25.985Z,100972.75
2023-09-09T03:26:52.996Z,100977.56
2023-09-09T03:29:20.246Z,100972.84
2023-09-09T03:31:47.337Z,100976.69
2023-09-09T03:34:14.313Z,100973.34
2023-09-09T03:36:41.599Z,100975.03
2023-09-09T03:39:08.633Z,100977.22
2023-09-09T03:41:35.786Z,100972.09
2023-09-09T03:44:04.008Z,100974.22
2023-09-09T03:46:31.321Z,100977.06
2023-09-09T03:49:00.902Z,100973.91
2023-09-09T03:51:28.400Z,100975.34
2023-09-09T03:53:55.620Z,100973.75
2023-09-09T03:56:22.590Z,100978.31
2023-09-09T03:58:50.963Z,100969.66
2023-09-09T04:01:18.034Z,100964.72
2023-09-09T04:03:45.853Z,100975.34
2023-09-09T04:06:18.538Z,100974.63
2023-09-09T04:08:47.008Z,100977.06
2023-09-09T04:11:15.675Z,100972.56
2023-09-09T04:13:43.409Z,100974.94
2023-09-09T04:16:12.572Z,100971.84
2023-09-09T04:18:46.567Z,100978.69
2023-09-09T04:21:15.950Z,100966.16
2023-09-09T04:23:42.968Z,100969.81
2023-09-09T04:26:10.569Z,100972.34
2023-09-09T04:28:37.516Z,100968.34
2023-09-09T04:31:05.078Z,100967.94
2023-09-09T04:33:36.246Z,100967.06
2023-09-09T04:36:03.762Z,100965.53
2023-09-09T04:38:31.267Z,100961.56
2023-09-09T04:40:59.471Z,100964.53
2023-09-09T04:43:27.293Z,100962.38
2023-09-09T04:45:54.385Z,100973.56
2023-09-09T04:48:21.430Z,100972.28
2023-09-09T04:50:49.060Z,100973.66
2023-09-09T04:53:16.289Z,100978.38
2023-09-09T04:55:43.654Z,100972.69
2023-09-09T04:58:12.124Z,100961.16
2023-09-09T05:00:40.435Z,100965.97
2023-09-09T05:03:07.830Z,100964.38
2023-09-09T05:05:35.085Z,100972.78
2023-09-09T05:08:02.144Z,100963.69
2023-09-09T05:10:31.443Z,100969.75
2023-09-09T05:12:58.880Z,100964.94
2023-09-09T05:15:25.952Z,100971.13
2023-09-09T05:17:53.150Z,100977.50
2023-09-09T05:20:20.834Z,100976.03
2023-09-09T05:22:47.757Z,100977.75
2023-09-09T05:25:15.041Z,100982.19
2023-09-09T05:27:42.998Z,100975.78
2023-09-09T05:30:10.113Z,100983.88
2023-09-09T05:32:37.904Z,100976.47
2023-09-09T05:35:05.576Z,100975.78
2023-09-09T05:37:33.413Z,100976.88
2023-09-09T05:40:04.160Z,100978.97
2023-09-09T05:42:31.707Z,100978.88
2023-09-09T05:44:58.949Z,100969.97
2023-09-09T05:47:25.894Z,100973.56
2023-09-09T05:49:52.767Z,100977.69
2023-09-09T05:52:19.845Z,100977.19
2023-09-09T05:54:46.884Z,100974.19
2023-09-09T05:57:13.979Z,100978.28
2023-09-09T05:59:41.487Z,100977.97
2023-09-09T06:02:10.145Z,100980.69
2023-09-09T06:04:37.286Z,100981.91
2023-09-09T06:07:05.202Z,100992.09
2023-09-09T06:09:32.181Z,100995.56
2023-09-09T06:11:59.733Z,100999.16
2023-09-09T06:14:26.679Z,100996.16
2023-09-09T06:16:53.719Z,100998.25
2023-09-09T06:19:21.064Z,100996.25
2023-09-09T06:21:48.479Z,100995.47
2023-09-09T06:24:15.812Z,100995.31
2023-09-09T06:26:44.411Z,101001.09
2023-09-09T06:29:11.632Z,100997.34
2023-09-09T06:31:38.617Z,100992.97
2023-09-09T06:34:05.957Z,100996.56
2023-09-09T06:36:32.941Z,101005.22
2023-09-09T06:39:00.100Z,101007.97
2023-09-09T06:41:27.205Z,101008.34
2023-09-09T06:43:54.404Z,101010.25
2023-09-09T06:46:21.395Z,101006.56
2023-09-09T06:48:48.522Z,101001.84
2023-09-09T06:51:17.432Z,101013.34
2023-09-09T06:53:44.356Z,101017.94
2023-09-09T06:56:11.538Z,101018.13
2023-09-09T06:58:38.639Z,101018.63
2023-09-09T07:01:05.910Z,101012.41
2023-09-09T07:03:33.181Z,101018.34
2023-09-09T07:06:01.598Z,101016.22
2023-09-09T07:08:29.426Z,101023.75
2023-09-09T07:10:57.875Z,101023.75
2023-09-09T07:13:25.228Z,101018.53
2023-09-09T07:15:53.762Z,101021.63
2023-09-09T07:18:22.096Z,101019.41
2023-09-09T07:20:50.408Z,101021.47
2023-09-09T07:23:18.451Z,101018.81
2023-09-09T07:25:46.303Z,101021.03
2023-09-09T07:28:13.580Z,101019.31
2023-09-09T07:30:40.549Z,101017.81
2023-09-09T07:33:08.130Z,101013.75
2023-09-09T07:35:37.298Z,101018.19
2023-09-09T07:38:06.127Z,101007.41
2023-09-09T07:40:33.569Z,101011.78
2023-09-09T07:43:01.085Z,101014.19
2023-09-09T07:45:28.866Z,101008.78
2023-09-09T07:47:57.528Z,101009.63
2023-09-09T07:50:24.744Z,101011.53
2023-09-09T07:52:51.979Z,101022.19
2023-09-09T07:55:19.032Z,101019.66
2023-09-09T07:57:46.050Z,101014.25
2023-09-09T08:00:13.383Z,101021.84
2023-09-09T08:02:40.580Z,101020.66
2023-09-09T08:05:08.127Z,101019.47
2023-09-09T08:07:35.694Z,101021.00
2023-09-09T08:10:02.767Z,101020.50
2023-09-09T08:12:30.800Z,101015.06
2023-09-09T08:15:08.687Z,101017.63
2023-09-09T08:17:36.209Z,101023.72
2023-09-09T08:20:08.857Z,101017.59
2023-09-09T08:22:37.291Z,101017.59
2023-09-09T08:25:06.228Z,101018.97
2023-09-09T08:27:33.662Z,101016.38
2023-09-09T08:30:00.643Z,101016.53
2023-09-09T08:32:29.812Z,101016.34
2023-09-09T08:34:58.119Z,101007.56
2023-09-09T08:37:25.056Z,101004.34
2023-09-09T08:39:55.980Z,101016.53
2023-09-09T08:42:48.735Z,101008.72
2023-09-09T08:45:32.847Z,101012.72
2023-09-09T08:48:00.416Z,101011.91
2023-09-09T08:50:28.772Z,101004.91
2023-09-09T08:52:55.868Z,101006.63
2023-09-09T08:55:22.944Z,101017.97
2023-09-09T08:57:50.400Z,101012.69
2023-09-09T09:00:17.766Z,101016.72
2023-09-09T09:02:45.642Z,101014.53
2023-09-09T09:05:13.567Z,101014.09
2023-09-09T09:07:40.620Z,101010.81
2023-09-09T09:10:08.106Z,101013.69
2023-09-09T09:12:37.010Z,101003.44
2023-09-09T09:15:05.072Z,101005.13
2023-09-09T09:17:34.115Z,101009.34
2023-09-09T09:20:01.182Z,101013.75
2023-09-09T09:22:29.055Z,101015.09
2023-09-09T09:24:55.981Z,101006.59
2023-09-09T09:27:22.958Z,101011.09
2023-09-09T09:29:50.151Z,101017.41
2023-09-09T09:32:20.154Z,101007.97
2023-09-09T09:34:48.280Z,101001.22
2023-09-09T09:37:16.598Z,101008.09
2023-09-09T09:39:44.835Z,100999.41
2023-09-09T09:42:12.939Z,100997.63
2023-09-09T09:44:40.047Z,101003.66
2023-09-09T09:47:08.795Z,101002.59
2023-09-09T09:49:45.648Z,101003.41
2023-09-09T09:52:23.901Z,100999.09
2023-09-09T09:54:54.611Z,100998.56
2023-09-09T09:57:22.423Z,100993.75
2023-09-09T09:59:49.534Z,100992.66
2023-09-09T10:02:16.928Z,100995.09
2023-09-09T10:04:44.496Z,100999.13
2023-09-09T10:07:13.665Z,100991.75
2023-09-09T10:09:58.112Z,100984.78
2023-09-09T10:12:49.328Z,100983.38
2023-09-09T10:15:23.400Z,100986.47
2023-09-09T10:17:53.041Z,100979.69
2023-09-09T10:20:23.820Z,100977.91
2023-09-09T10:22:51.975Z,100968.06
2023-09-09T10:25:19.160Z,100972.56
2023-09-09T10:27:46.190Z,100974.94
2023-09-09T10:30:13.495Z,100974.13
2023-09-09T10:32:41.704Z,100967.81
2023-09-09T10:35:09.208Z,100966.78
2023-09-09T10:37:38.004Z,100958.88
2023-09-09T10:40:07.604Z,100961.38
2023-09-09T10:42:39.378Z,100967.31
2023-09-09T10:45:34.403Z,100967.19
2023-09-09T10:48:06.006Z,100964.09
2023-09-09T10:50:47.163Z,100963.28
2023-09-09T10:53:16.211Z,100972.53
2023-09-09T10:55:44.007Z,100968.38
2023-09-09T10:58:11.018Z,100963.22
2023-09-09T11:00:43.016Z,100957.47
2023-09-09T11:03:11.671Z,100957.53
2023-09-09T11:06:01.480Z,100956.81
2023-09-09T11:08:29.647Z,100956.22
2023-09-09T11:11:09.931Z,100958.50
2023-09-09T11:13:54.541Z,100955.53
2023-09-09T11:16:28.858Z,100951.31
2023-09-09T11:18:57.615Z,100948.81
2023-09-09T11:21:24.799Z,100945.09
2023-09-09T11:23:52.797Z,100945.66
2023-09-09T11:26:20.205Z,100946.09
2023-09-09T11:28:48.953Z,100944.22
2023-09-09T11:31:16.897Z,100943.16
2023-09-09T11:33:44.215Z,100943.59
2023-09-09T11:36:11.232Z,100939.41
2023-09-09T11:38:41.115Z,100930.56
2023-09-09T11:41:08.265Z,100937.97
2023-09-09T11:43:35.178Z,100925.56
2023-09-09T11:46:02.245Z,100923.25
2023-09-09T11:48:29.238Z,100922.59
2023-09-09T11:50:57.628Z,100918.44
2023-09-09T11:53:24.602Z,100925.78
2023-09-09T11:55:55.053Z,100919.69
2023-09-09T11:58:22.195Z,100912.72
2023-09-09T12:00:49.237Z,100915.00
2023-09-09T12:03:22.089Z,100921.28
2023-09-09T12:05:52.401Z,100919.09
2023-09-09T12:08:19.706Z,100914.81
2023-09-09T12:10:46.704Z,100913.31
2023-09-09T12:13:16.096Z,100912.69
2023-09-09T12:15:56.415Z,100910.44
2023-09-09T12:18:31.353Z,100905.78
2023-09-09T12:21:08.964Z,100910.38
2023-09-09T12:23:38.195Z,100908.44
2023-09-09T12:26:12.674Z,100903.03
2023-09-09T12:28:47.861Z,100901.53
2023-09-09T12:31:15.205Z,100895.47
2023-09-09T12:33:48.019Z,100909.59
2023-09-09T12:36:19.738Z,100897.44
2023-09-09T12:38:48.596Z,100901.97
2023-09-09T12:41:20.529Z,100907.13
2023-09-09T12:43:57.070Z,100900.03
2023-09-09T12:46:28.652Z,100892.28
2023-09-09T12:49:00.103Z,100898.31
2023-09-09T12:51:31.943Z,100904.25
2023-09-09T12:54:00.225Z,100896.94
2023-09-09T12:56:27.189Z,100900.13
2023-09-09T12:58:54.164Z,100898.44
2023-09-09T13:01:21.167Z,100898.22
2023-09-09T13:03:48.093Z,100892.41
2023-09-09T13:06:15.265Z,100884.69
2023-09-09T13:08:42.130Z,100884.94
2023-09-09T13:11:09.078Z,100889.28
2023-09-09T13:13:38.788Z,100882.41
2023-09-09T13:16:08.069Z,100884.75
2023-09-09T13:18:35.217Z,100876.47
2023-09-09T13:21:05.041Z,100879.63
2023-09-09T13:23:32.460Z,100873.72
2023-09-09T13:26:01.726Z,100873.81
2023-09-09T13:28:28.907Z,100875.13
2023-09-09T13:31:06.232Z,100873.47
2023-09-09T13:33:36.075Z,100868.66
2023-09-09T13:36:03.316Z,100868.22
2023-09-09T13:38:30.468Z,100874.19
2023-09-09T13:40:57.950Z,100872.75
2023-09-09T13:43:25.085Z,100867.38
2023-09-09T13:46:09.016Z,100876.13
2023-09-09T13:48:39.784Z,100868.56
2023-09-09T13:51:32.486Z,100870.88
2023-09-09T13:54:09.086Z,100875.44
2023-09-09T13:57:08.380Z,100871.38
2023-09-09T13:59:38.230Z,100868.66
2023-09-09T14:02:09.826Z,100859.47
2023-09-09T14:04:39.696Z,100863.91
2023-09-09T14:07:06.636Z,100863.53
2023-09-09T14:09:39.572Z,100861.44
2023-09-09T14:12:33.441Z,100863.75
2023-09-09T14:15:30.088Z,100861.19
2023-09-09T14:17:57.140Z,100853.72
2023-09-09T14:20:24.257Z,100861.47
2023-09-09T14:22:51.481Z,100851.91
2023-09-09T14:25:18.767Z,100847.75
2023-09-09T14:27:46.098Z,100845.31
2023-09-09T14:30:13.277Z,100849.34
2023-09-09T14:32:45.418Z,100842.19
2023-09-09T14:35:31.165Z,100840.78
2023-09-09T14:38:16.026Z,100840.41
2023-09-09T14:40:56.680Z,100841.81
2023-09-09T14:43:34.651Z,100841.38
2023-09-09T14:46:25.713Z,100838.53
2023-09-09T14:49:05.549Z,100837.00
2023-09-09T14:51:46.618Z,100835.53
2023-09-09T14:54:16.168Z,100839.50
2023-09-09T14:56:43.214Z,100829.72
2023-09-09T15:00:00.770Z,100837.88
2023-09-09T15:02:38.992Z,100831.13
2023-09-09T15:05:23.955Z,100829.31
2023-09-09T15:07:57.237Z,100830.16
2023-09-09T15:10:37.114Z,100827.03
2023-09-09T15:13:26.656Z,100827.22
2023-09-09T15:15:54.025Z,100819.09
2023-09-09T15:18:24.034Z,100820.50
2023-09-09T15:20:51.277Z,100820.72
2023-09-09T15:23:18.354Z,100823.72
2023-09-09T15:25:45.318Z,100827.69
2023-09-09T15:28:20.396Z,100813.97
2023-09-09T15:30:50.365Z,100816.53
2023-09-09T15:33:29.911Z,100817.16
2023-09-09T15:35:59.629Z,100807.53
2023-09-09T15:38:48.598Z,100804.50
2023-09-09T15:43:48.591Z,100813.78
2023-09-09T15:44:17.555Z,100810.22
2023-09-09T15:46:44.649Z,100816.41
2023-09-09T15:49:16.200Z,100824.63
2023-09-09T15:51:53.230Z,100819.75
2023-09-09T15:54:31.028Z,100812.47
2023-09-09T15:57:08.187Z,100810.03
2023-09-09T15:59:37.382Z,100820.97
2023-09-09T16:02:05.784Z,100816.88
2023-09-09T16:04:32.858Z,100806.88
2023-09-09T16:06:59.809Z,100814.72
2023-09-09T16:09:31.794Z,100825.09
2023-09-09T16:12:00.196Z,100815.41
2023-09-09T16:14:28.148Z,100815.06
2023-09-09T16:16:55.463Z,100818.34
2023-09-09T16:19:24.763Z,100809.97
2023-09-09T16:21:54.518Z,100812.03
2023-09-09T16:24:22.996Z,100814.03
2023-09-09T16:26:50.012Z,100812.75
2023-09-09T16:29:17.444Z,100808.66
2023-09-09T16:31:49.449Z,100812.91
2023-09-09T16:34:16.613Z,100809.72
2023-09-09T16:36:43.601Z,100809.53
2023-09-09T16:39:11.249Z,100810.41
2023-09-09T16:41:38.406Z,100814.97
2023-09-09T16:44:08.602Z,100808.28
2023-09-09T16:46:35.995Z,100810.22
2023-09-09T16:49:04.581Z,100814.09
2023-09-09T16:51:42.319Z,100804.69
2023-09-09T16:54:11.765Z,100818.59
2023-09-09T16:56:38.791Z,100817.34
2023-09-09T16:59:07.128Z,100821.09
2023-09-09T17:01:36.607Z,100807.69
2023-09-09T17:04:08.743Z,100817.16
2023-09-09T17:06:56.262Z,100808.88
2023-09-09T17:09:26.278Z,100813.66
2023-09-09T17:11:55.748Z,100808.47
2023-09-09T17:14:23.130Z,100810.19
2023-09-09T17:17:00.206Z,100810.19
2023-09-09T17:19:32.013Z,100818.63
2023-09-09T17:22:00.378Z,100814.97
2023-09-09T17:24:37.982Z,100817.66
2023-09-09T17:27:23.986Z,100819.03
2023-09-09T17:29:55.949Z,100819.31
2023-09-09T17:32:45.627Z,100835.19
2023-09-09T17:35:32.784Z,100827.63
2023-09-09T17:41:03.677Z,100833.78
2023-09-09T17:42:15.610Z,100834.94
2023-09-09T17:45:28.524Z,100841.88
2023-09-09T17:48:28.504Z,100846.72
2023-09-09T17:51:30.815Z,100846.91
2023-09-09T17:54:10.420Z,100842.69
2023-09-09T17:56:46.862Z,100842.91
2023-09-09T18:00:12.907Z,100842.25
2023-09-09T18:02:40.462Z,100845.13
2023-09-09T18:05:36.413Z,100847.25
2023-09-09T18:08:04.553Z,100845.09
2023-09-09T18:10:58.965Z,100851.34
2023-09-09T18:13:46.385Z,100853.22
2023-09-09T18:16:27.417Z,100854.19
2023-09-09T18:19:12.842Z,100850.97
2023-09-09T18:22:14.505Z,100858.66
2023-09-09T18:24:51.780Z,100860.56
2023-09-09T18:29:44.733Z,100856.09
2023-09-09T18:30:12.322Z,100870.84
2023-09-09T18:32:41.427Z,100867.47
2023-09-09T18:35:08.929Z,100866.47
2023-09-09T18:37:37.216Z,100870.13
2023-09-09T18:40:05.558Z,100868.56
2023-09-09T18:42:33.556Z,100861.38
2023-09-09T18:45:00.585Z,100864.25
2023-09-09T18:47:29.905Z,100865.19
2023-09-09T18:49:56.997Z,100867.78
2023-09-09T18:52:24.339Z,100870.66
2023-09-09T18:54:51.928Z,100864.63
2023-09-09T18:57:19.088Z,100869.59
2023-09-09T18:59:46.931Z,100872.91
2023-09-09T19:02:16.322Z,100873.69
2023-09-09T19:04:44.561Z,100880.66
2023-09-09T19:07:12.953Z,100879.34
2023-09-09T19:09:40.066Z,100888.06
2023-09-09T19:12:08.965Z,100882.25
2023-09-09T19:14:41.289Z,100879.09
2023-09-09T19:17:11.800Z,100883.38
2023-09-09T19:19:38.802Z,100884.78
2023-09-09T19:22:06.122Z,100879.53
2023-09-09T19:24:34.107Z,100896.13
2023-09-09T19:27:02.048Z,100891.13
2023-09-09T19:29:30.042Z,100888.97
2023-09-09T19:31:57.118Z,100884.94
2023-09-09T19:34:24.342Z,100889.22
2023-09-09T19:36:53.147Z,100888.41
2023-09-09T19:39:20.242Z,100886.78
2023-09-09T19:41:47.415Z,100887.31
2023-09-09T19:44:15.720Z,100895.66
2023-09-09T19:46:42.690Z,100888.56
2023-09-09T19:49:11.970Z,100894.22
2023-09-09T19:51:39.824Z,100897.03
2023-09-09T19:54:07.049Z,100887.38
2023-09-09T19:56:36.388Z,100888.56
2023-09-09T19:59:06.560Z,100885.03
2023-09-09T20:01:33.812Z,100892.91
2023-09-09T20:04:03.461Z,100884.47
2023-09-09T20:06:33.049Z,100881.88
2023-09-09T20:09:00.138Z,100891.69
2023-09-09T20:11:27.124Z,100884.09
2023-09-09T20:13:54.070Z,100883.97
2023-09-09T20:16:21.146Z,100886.19
2023-09-09T20:18:49.525Z,100887.78
2023-09-09T20:21:16.601Z,100883.34
2023-09-09T20:23:45.017Z,100882.53
2023-09-09T20:26:17.929Z,100892.38
2023-09-09T20:29:00.752Z,100888.34
2023-09-09T20:31:30.599Z,100891.44
2023-09-09T20:33:57.866Z,100890.09
2023-09-09T20:36:27.235Z,100894.78
2023-09-09T20:38:56.609Z,100887.28
2023-09-09T20:41:23.660Z,100880.06
2023-09-09T20:43:50.820Z,100884.63
2023-09-09T20:46:17.950Z,100878.84
2023-09-09T20:48:45.031Z,100875.16
2023-09-09T20:51:11.939Z,100880.28
2023-09-09T20:53:39.146Z,100882.16
2023-09-09T20:56:11.407Z,100883.53
2023-09-09T20:58:39.871Z,100879.81
2023-09-09T21:01:07.280Z,100881.31
2023-09-09T21:03:34.371Z,100881.50
2023-09-09T21:06:01.557Z,100885.09
2023-09-09T21:08:28.616Z,100885.47
2023-09-09T21:10:55.626Z,100880.72
2023-09-09T21:13:22.931Z,100877.00
2023-09-09T21:15:50.594Z,100878.69
2023-09-09T21:18:18.595Z,100883.59
2023-09-09T21:20:46.224Z,100878.53
2023-09-09T21:23:14.069Z,100873.47
2023-09-09T21:25:41.469Z,100879.88
2023-09-09T21:28:09.179Z,100878.88
2023-09-09T21:30:36.588Z,100876.34
2023-09-09T21:33:05.991Z,100879.41
2023-09-09T21:35:33.285Z,100877.53
2023-09-09T21:38:00.302Z,100874.84
2023-09-09T21:40:27.396Z,100873.00
2023-09-09T21:42:54.821Z,100873.53
2023-09-09T21:45:24.236Z,100867.78
2023-09-09T21:47:52.626Z,100875.22
2023-09-09T21:50:19.847Z,100872.16
2023-09-09T21:52:47.035Z,100874.72
2023-09-09T21:55:14.076Z,100872.50
2023-09-09T21:57:41.117Z,100869.97
2023-09-09T22:00:21.653Z,100862.88
2023-09-09T22:02:52.153Z,100866.06
2023-09-09T22:05:21.273Z,100865.41
2023-09-09T22:07:48.307Z,100869.81
2023-09-09T22:10:15.715Z,100867.28
2023-09-09T22:12:42.909Z,100857.81
2023-09-09T22:15:10.743Z,100862.88
2023-09-09T22:17:38.976Z,100862.69
2023-09-09T22:20:13.411Z,100855.09
2023-09-09T22:22:41.282Z,100860.16
2023-09-09T22:25:11.002Z,100858.47
2023-09-09T22:27:38.085Z,100857.94
2023-09-09T22:30:07.056Z,100856.09
2023-09-09T22:32:34.678Z,100852.06
2023-09-09T22:35:05.704Z,100852.22
2023-09-09T22:37:33.262Z,100846.28
2023-09-09T22:40:00.356Z,100856.09
2023-09-09T22:42:27.632Z,100849.16
2023-09-09T22:44:54.772Z,100849.34
2023-09-09T22:47:21.796Z,100848.66
2023-09-09T22:49:51.924Z,100853.56
2023-09-09T22:52:19.332Z,100845.13
2023-09-09T22:54:46.327Z,100843.41
2023-09-09T22:57:13.281Z,100856.44
2023-09-09T22:59:40.400Z,100850.66
2023-09-09T23:02:07.562Z,100848.97
2023-09-09T23:04:34.978Z,100841.69
2023-09-09T23:07:02.094Z,100844.53
2023-09-09T23:09:32.225Z,100850.63
2023-09-09T23:12:00.392Z,100850.97
2023-09-09T23:14:27.683Z,100849.94
2023-09-09T23:16:54.993Z,100848.22
2023-09-09T23:19:22.432Z,100849.91
2023-09-09T23:21:49.421Z,100843.13
2023-09-09T23:24:16.381Z,100840.56
2023-09-09T23:26:43.387Z,100846.13
2023-09-09T23:29:10.493Z,100839.03
2023-09-09T23:31:40.111Z,100839.72
2023-09-09T23:34:07.204Z,100842.72
2023-09-09T23:36:34.244Z,100833.44
2023-09-09T23:39:10.565Z,100830.44
2023-09-09T23:41:39.894Z,100832.59
2023-09-09T23:44:07.508Z,100828.53
2023-09-09T23:46:36.084Z,100832.69
2023-09-09T23:49:03.147Z,100823.72
2023-09-09T23:51:30.092Z,100834.00
2023-09-09T23:53:57.736Z,100836.50
2023-09-09T23:56:24.845Z,100836.50
2023-09-09T23:58:51.927Z,100836.84
